sensor_id;sensor_type;location;lat;lon;timestamp;P1;durP1;ratioP1;P2;durP2;ratioP2
29168;SDS011;16219;42.864;23.360;2022-07-29T00:01:51;0.98;;;0.95;;
29168;SDS011;16219;42.864;23.360;2022-07-29T00:04:18;1.98;;;1.77;;
29168;SDS011;16219;42.864;23.360;2022-07-29T00:06:46;2.25;;;1.23;;
29168;SDS011;16219;42.864;23.360;2022-07-29T00:09:13;1.48;;;1.23;;
29168;SDS011;16219;42.864;23.360;2022-07-29T00:11:40;0.98;;;0.98;;
29168;SDS011;16219;42.864;23.360;2022-07-29T00:14:08;1.98;;;1.77;;
29168;SDS011;16219;42.864;23.360;2022-07-29T00:16:38;1.20;;;1.15;;
29168;SDS011;16219;42.864;23.360;2022-07-29T00:19:05;3.03;;;1.88;;
29168;SDS011;16219;42.864;23.360;2022-07-29T00:21:34;0.82;;;0.82;;
29168;SDS011;16219;42.864;23.360;2022-07-29T00:24:03;1.48;;;1.38;;
29168;SDS011;16219;42.864;23.360;2022-07-29T00:26:30;1.63;;;1.52;;
29168;SDS011;16219;42.864;23.360;2022-07-29T00:28:58;0.82;;;0.82;;
29168;SDS011;16219;42.864;23.360;2022-07-29T00:31:25;2.55;;;1.80;;
29168;SDS011;16219;42.864;23.360;2022-07-29T00:33:54;1.75;;;1.48;;
29168;SDS011;16219;42.864;23.360;2022-07-29T00:36:22;1.23;;;1.23;;
29168;SDS011;16219;42.864;23.360;2022-07-29T00:38:48;2.40;;;1.80;;
29168;SDS011;16219;42.864;23.360;2022-07-29T00:41:16;1.35;;;1.27;;
29168;SDS011;16219;42.864;23.360;2022-07-29T00:43:44;1.33;;;1.33;;
29168;SDS011;16219;42.864;23.360;2022-07-29T00:46:11;2.00;;;1.90;;
29168;SDS011;16219;42.864;23.360;2022-07-29T00:48:39;1.42;;;1.27;;
29168;SDS011;16219;42.864;23.360;2022-07-29T00:51:07;3.00;;;2.22;;
29168;SDS011;16219;42.864;23.360;2022-07-29T00:53:35;2.22;;;2.03;;
29168;SDS011;16219;42.864;23.360;2022-07-29T00:56:02;2.35;;;1.45;;
29168;SDS011;16219;42.864;23.360;2022-07-29T00:58:30;1.50;;;1.40;;
29168;SDS011;16219;42.864;23.360;2022-07-29T01:00:58;1.92;;;1.73;;
29168;SDS011;16219;42.864;23.360;2022-07-29T01:03:25;1.23;;;1.23;;
29168;SDS011;16219;42.864;23.360;2022-07-29T01:05:52;1.50;;;1.40;;
29168;SDS011;16219;42.864;23.360;2022-07-29T01:08:22;4.20;;;1.67;;
29168;SDS011;16219;42.864;23.360;2022-07-29T01:10:50;3.35;;;1.58;;
29168;SDS011;16219;42.864;23.360;2022-07-29T01:13:18;5.60;;;1.55;;
29168;SDS011;16219;42.864;23.360;2022-07-29T01:15:47;1.50;;;1.40;;
29168;SDS011;16219;42.864;23.360;2022-07-29T01:18:20;1.10;;;1.10;;
29168;SDS011;16219;42.864;23.360;2022-07-29T01:20:55;2.17;;;1.52;;
29168;SDS011;16219;42.864;23.360;2022-07-29T01:24:03;9.68;;;2.45;;
29168;SDS011;16219;42.864;23.360;2022-07-29T01:26:51;1.15;;;1.10;;
29168;SDS011;16219;42.864;23.360;2022-07-29T01:29:26;1.65;;;1.40;;
29168;SDS011;16219;42.864;23.360;2022-07-29T01:31:56;1.63;;;1.52;;
29168;SDS011;16219;42.864;23.360;2022-07-29T01:34:29;2.65;;;1.50;;
29168;SDS011;16219;42.864;23.360;2022-07-29T01:37:04;1.75;;;1.65;;
29168;SDS011;16219;42.864;23.360;2022-07-29T01:39:36;2.97;;;1.67;;
29168;SDS011;16219;42.864;23.360;2022-07-29T01:42:07;1.55;;;1.45;;
29168;SDS011;16219;42.864;23.360;2022-07-29T01:44:45;2.25;;;2.03;;
29168;SDS011;16219;42.864;23.360;2022-07-29T01:47:15;1.05;;;0.98;;
29168;SDS011;16219;42.864;23.360;2022-07-29T01:49:47;2.28;;;1.17;;
29168;SDS011;16219;42.864;23.360;2022-07-29T01:52:19;1.30;;;1.20;;
29168;SDS011;16219;42.864;23.360;2022-07-29T01:54:51;1.50;;;1.40;;
29168;SDS011;16219;42.864;23.360;2022-07-29T01:57:24;1.83;;;1.67;;
29168;SDS011;16219;42.864;23.360;2022-07-29T01:59:56;1.17;;;1.08;;
29168;SDS011;16219;42.864;23.360;2022-07-29T02:02:24;3.42;;;1.67;;
29168;SDS011;16219;42.864;23.360;2022-07-29T02:04:54;2.00;;;1.80;;
29168;SDS011;16219;42.864;23.360;2022-07-29T02:07:24;2.60;;;2.00;;
29168;SDS011;16219;42.864;23.360;2022-07-29T02:09:54;1.30;;;1.23;;
29168;SDS011;16219;42.864;23.360;2022-07-29T02:12:24;6.95;;;1.85;;
29168;SDS011;16219;42.864;23.360;2022-07-29T02:14:55;2.05;;;1.92;;
29168;SDS011;16219;42.864;23.360;2022-07-29T02:17:26;2.60;;;1.90;;
29168;SDS011;16219;42.864;23.360;2022-07-29T02:19:59;2.15;;;1.45;;
29168;SDS011;16219;42.864;23.360;2022-07-29T02:22:30;1.70;;;1.33;;
29168;SDS011;16219;42.864;23.360;2022-07-29T02:24:59;2.65;;;2.05;;
29168;SDS011;16219;42.864;23.360;2022-07-29T02:27:27;1.85;;;1.73;;
29168;SDS011;16219;42.864;23.360;2022-07-29T02:29:58;1.75;;;1.35;;
29168;SDS011;16219;42.864;23.360;2022-07-29T02:32:28;2.70;;;1.67;;
29168;SDS011;16219;42.864;23.360;2022-07-29T02:34:57;1.67;;;1.58;;
29168;SDS011;16219;42.864;23.360;2022-07-29T02:54:39;5.43;;;1.60;;
29168;SDS011;16219;42.864;23.360;2022-07-29T02:57:11;2.47;;;1.75;;
29168;SDS011;16219;42.864;23.360;2022-07-29T02:59:43;1.50;;;1.38;;
29168;SDS011;16219;42.864;23.360;2022-07-29T03:02:14;1.13;;;0.85;;
29168;SDS011;16219;42.864;23.360;2022-07-29T03:04:43;2.45;;;1.20;;
29168;SDS011;16219;42.864;23.360;2022-07-29T03:07:11;0.82;;;0.82;;
29168;SDS011;16219;42.864;23.360;2022-07-29T03:09:42;1.25;;;1.25;;
29168;SDS011;16219;42.864;23.360;2022-07-29T03:12:10;1.65;;;1.55;;
29168;SDS011;16219;42.864;23.360;2022-07-29T03:14:38;4.20;;;1.92;;
29168;SDS011;16219;42.864;23.360;2022-07-29T03:17:06;2.15;;;1.95;;
29168;SDS011;16219;42.864;23.360;2022-07-29T03:19:33;4.38;;;2.30;;
29168;SDS011;16219;42.864;23.360;2022-07-29T03:22:01;1.73;;;1.63;;
29168;SDS011;16219;42.864;23.360;2022-07-29T03:24:28;1.55;;;1.45;;
29168;SDS011;16219;42.864;23.360;2022-07-29T03:26:58;1.73;;;1.58;;
29168;SDS011;16219;42.864;23.360;2022-07-29T03:29:26;1.90;;;1.65;;
29168;SDS011;16219;42.864;23.360;2022-07-29T03:31:54;2.92;;;1.70;;
29168;SDS011;16219;42.864;23.360;2022-07-29T03:34:21;1.73;;;1.63;;
29168;SDS011;16219;42.864;23.360;2022-07-29T03:36:48;4.82;;;2.17;;
29168;SDS011;16219;42.864;23.360;2022-07-29T03:39:17;1.70;;;1.45;;
29168;SDS011;16219;42.864;23.360;2022-07-29T03:41:56;2.03;;;1.83;;
29168;SDS011;16219;42.864;23.360;2022-07-29T03:44:26;4.43;;;2.08;;
29168;SDS011;16219;42.864;23.360;2022-07-29T03:46:55;0.95;;;0.95;;
29168;SDS011;16219;42.864;23.360;2022-07-29T03:49:27;1.98;;;1.83;;
29168;SDS011;16219;42.864;23.360;2022-07-29T03:51:55;1.58;;;1.42;;
29168;SDS011;16219;42.864;23.360;2022-07-29T03:54:23;1.65;;;1.50;;
29168;SDS011;16219;42.864;23.360;2022-07-29T03:56:50;3.28;;;1.73;;
29168;SDS011;16219;42.864;23.360;2022-07-29T03:59:20;4.03;;;1.90;;
29168;SDS011;16219;42.864;23.360;2022-07-29T04:01:48;2.85;;;1.92;;
29168;SDS011;16219;42.864;23.360;2022-07-29T04:04:16;4.95;;;1.92;;
29168;SDS011;16219;42.864;23.360;2022-07-29T04:06:45;2.58;;;1.55;;
29168;SDS011;16219;42.864;23.360;2022-07-29T04:09:12;2.25;;;2.08;;
29168;SDS011;16219;42.864;23.360;2022-07-29T04:11:40;1.40;;;1.23;;
29168;SDS011;16219;42.864;23.360;2022-07-29T04:14:08;1.98;;;1.40;;
29168;SDS011;16219;42.864;23.360;2022-07-29T04:16:36;3.22;;;1.73;;
29168;SDS011;16219;42.864;23.360;2022-07-29T04:19:03;1.85;;;1.75;;
29168;SDS011;16219;42.864;23.360;2022-07-29T04:21:30;2.53;;;1.75;;
29168;SDS011;16219;42.864;23.360;2022-07-29T04:23:57;1.35;;;1.25;;
29168;SDS011;16219;42.864;23.360;2022-07-29T04:26:25;0.90;;;0.90;;
29168;SDS011;16219;42.864;23.360;2022-07-29T04:28:52;1.38;;;1.27;;
29168;SDS011;16219;42.864;23.360;2022-07-29T04:31:19;1.88;;;1.73;;
29168;SDS011;16219;42.864;23.360;2022-07-29T04:33:48;1.60;;;1.50;;
29168;SDS011;16219;42.864;23.360;2022-07-29T04:36:15;1.00;;;1.00;;
29168;SDS011;16219;42.864;23.360;2022-07-29T04:38:42;1.65;;;1.55;;
29168;SDS011;16219;42.864;23.360;2022-07-29T04:41:09;1.88;;;1.65;;
29168;SDS011;16219;42.864;23.360;2022-07-29T04:43:36;2.03;;;1.40;;
29168;SDS011;16219;42.864;23.360;2022-07-29T04:46:05;1.48;;;1.38;;
29168;SDS011;16219;42.864;23.360;2022-07-29T04:48:33;1.20;;;1.20;;
29168;SDS011;16219;42.864;23.360;2022-07-29T04:51:01;1.63;;;1.52;;
29168;SDS011;16219;42.864;23.360;2022-07-29T04:53:28;2.53;;;1.55;;
29168;SDS011;16219;42.864;23.360;2022-07-29T04:55:55;2.33;;;1.52;;
29168;SDS011;16219;42.864;23.360;2022-07-29T04:58:22;4.18;;;2.17;;
29168;SDS011;16219;42.864;23.360;2022-07-29T05:00:50;2.78;;;1.88;;
29168;SDS011;16219;42.864;23.360;2022-07-29T05:03:17;0.85;;;0.85;;
29168;SDS011;16219;42.864;23.360;2022-07-29T05:05:44;1.88;;;1.73;;
29168;SDS011;16219;42.864;23.360;2022-07-29T05:08:12;1.88;;;1.70;;
29168;SDS011;16219;42.864;23.360;2022-07-29T05:10:39;1.42;;;1.35;;
29168;SDS011;16219;42.864;23.360;2022-07-29T05:13:07;1.10;;;1.10;;
29168;SDS011;16219;42.864;23.360;2022-07-29T05:15:34;1.77;;;1.65;;
29168;SDS011;16219;42.864;23.360;2022-07-29T05:18:04;1.40;;;1.30;;
29168;SDS011;16219;42.864;23.360;2022-07-29T05:20:31;1.65;;;1.15;;
29168;SDS011;16219;42.864;23.360;2022-07-29T05:23:00;2.58;;;1.23;;
29168;SDS011;16219;42.864;23.360;2022-07-29T05:25:29;1.40;;;1.30;;
29168;SDS011;16219;42.864;23.360;2022-07-29T05:27:56;2.65;;;1.10;;
29168;SDS011;16219;42.864;23.360;2022-07-29T05:30:24;3.33;;;2.25;;
29168;SDS011;16219;42.864;23.360;2022-07-29T05:32:51;3.85;;;1.60;;
29168;SDS011;16219;42.864;23.360;2022-07-29T05:35:18;1.80;;;1.35;;
29168;SDS011;16219;42.864;23.360;2022-07-29T05:37:45;1.85;;;1.35;;
29168;SDS011;16219;42.864;23.360;2022-07-29T06:20:53;1.25;;;1.10;;
29168;SDS011;16219;42.864;23.360;2022-07-29T06:23:43;1.67;;;0.70;;
29168;SDS011;16219;42.864;23.360;2022-07-29T06:49:57;1.23;;;1.13;;
29168;SDS011;16219;42.864;23.360;2022-07-29T06:52:24;1.23;;;0.80;;
29168;SDS011;16219;42.864;23.360;2022-07-29T06:54:51;1.63;;;1.10;;
29168;SDS011;16219;42.864;23.360;2022-07-29T06:57:20;0.70;;;0.70;;
29168;SDS011;16219;42.864;23.360;2022-07-29T06:59:48;2.05;;;0.93;;
29168;SDS011;16219;42.864;23.360;2022-07-29T07:02:15;0.82;;;0.82;;
29168;SDS011;16219;42.864;23.360;2022-07-29T07:04:42;1.55;;;1.33;;
29168;SDS011;16219;42.864;23.360;2022-07-29T07:07:11;0.95;;;0.95;;
29168;SDS011;16219;42.864;23.360;2022-07-29T07:09:38;0.50;;;0.32;;
29168;SDS011;16219;42.864;23.360;2022-07-29T07:12:06;0.65;;;0.65;;
29168;SDS011;16219;42.864;23.360;2022-07-29T07:14:33;0.75;;;0.75;;
29168;SDS011;16219;42.864;23.360;2022-07-29T07:17:00;0.93;;;0.40;;
29168;SDS011;16219;42.864;23.360;2022-07-29T07:19:29;1.00;;;0.98;;
29168;SDS011;16219;42.864;23.360;2022-07-29T07:21:56;0.50;;;0.50;;
29168;SDS011;16219;42.864;23.360;2022-07-29T07:24:24;0.65;;;0.65;;
29168;SDS011;16219;42.864;23.360;2022-07-29T07:26:52;0.80;;;0.65;;
29168;SDS011;16219;42.864;23.360;2022-07-29T07:29:19;0.50;;;0.50;;
29168;SDS011;16219;42.864;23.360;2022-07-29T07:31:46;0.88;;;0.73;;
29168;SDS011;16219;42.864;23.360;2022-07-29T07:34:13;0.38;;;0.38;;
29168;SDS011;16219;42.864;23.360;2022-07-29T07:36:40;23.77;;;1.52;;
29168;SDS011;16219;42.864;23.360;2022-07-29T07:39:07;0.60;;;0.52;;
29168;SDS011;16219;42.864;23.360;2022-07-29T07:41:36;0.65;;;0.65;;
29168;SDS011;16219;42.864;23.360;2022-07-29T07:44:03;0.60;;;0.60;;
29168;SDS011;16219;42.864;23.360;2022-07-29T07:46:31;0.43;;;0.40;;
29168;SDS011;16219;42.864;23.360;2022-07-29T07:48:58;0.70;;;0.50;;
29168;SDS011;16219;42.864;23.360;2022-07-29T07:51:25;0.40;;;0.40;;
29168;SDS011;16219;42.864;23.360;2022-07-29T07:53:52;0.68;;;0.68;;
29168;SDS011;16219;42.864;23.360;2022-07-29T07:56:19;2.47;;;1.08;;
29168;SDS011;16219;42.864;23.360;2022-07-29T07:58:48;0.52;;;0.43;;
29168;SDS011;16219;42.864;23.360;2022-07-29T08:01:16;0.38;;;0.38;;
29168;SDS011;16219;42.864;23.360;2022-07-29T08:03:46;0.50;;;0.50;;
29168;SDS011;16219;42.864;23.360;2022-07-29T08:06:13;0.60;;;0.60;;
29168;SDS011;16219;42.864;23.360;2022-07-29T08:08:40;0.57;;;0.57;;
29168;SDS011;16219;42.864;23.360;2022-07-29T08:11:08;1.30;;;0.85;;
29168;SDS011;16219;42.864;23.360;2022-07-29T08:13:35;1.33;;;0.60;;
29168;SDS011;16219;42.864;23.360;2022-07-29T08:16:04;0.50;;;0.50;;
29168;SDS011;16219;42.864;23.360;2022-07-29T08:18:41;1.38;;;1.20;;
29168;SDS011;16219;42.864;23.360;2022-07-29T08:21:09;3.60;;;1.20;;
29168;SDS011;16219;42.864;23.360;2022-07-29T08:23:36;1.00;;;0.90;;
29168;SDS011;16219;42.864;23.360;2022-07-29T08:26:05;0.60;;;0.60;;
29168;SDS011;16219;42.864;23.360;2022-07-29T08:28:36;1.13;;;0.85;;
29168;SDS011;16219;42.864;23.360;2022-07-29T08:31:05;0.73;;;0.73;;
29168;SDS011;16219;42.864;23.360;2022-07-29T08:33:32;0.40;;;0.40;;
29168;SDS011;16219;42.864;23.360;2022-07-29T08:36:00;2.80;;;1.13;;
29168;SDS011;16219;42.864;23.360;2022-07-29T08:38:27;0.63;;;0.63;;
29168;SDS011;16219;42.864;23.360;2022-07-29T08:40:54;0.70;;;0.70;;
29168;SDS011;16219;42.864;23.360;2022-07-29T08:43:23;0.85;;;0.77;;
29168;SDS011;16219;42.864;23.360;2022-07-29T08:45:50;0.60;;;0.60;;
29168;SDS011;16219;42.864;23.360;2022-07-29T08:48:21;0.70;;;0.70;;
29168;SDS011;16219;42.864;23.360;2022-07-29T08:50:50;0.68;;;0.60;;
29168;SDS011;16219;42.864;23.360;2022-07-29T08:53:21;0.75;;;0.75;;
29168;SDS011;16219;42.864;23.360;2022-07-29T08:55:51;1.25;;;0.63;;
29168;SDS011;16219;42.864;23.360;2022-07-29T08:58:19;1.65;;;0.95;;
29168;SDS011;16219;42.864;23.360;2022-07-29T09:00:49;1.10;;;1.00;;
29168;SDS011;16219;42.864;23.360;2022-07-29T09:03:18;0.50;;;0.50;;
29168;SDS011;16219;42.864;23.360;2022-07-29T09:05:49;0.45;;;0.45;;
29168;SDS011;16219;42.864;23.360;2022-07-29T09:08:17;0.60;;;0.60;;
29168;SDS011;16219;42.864;23.360;2022-07-29T09:10:45;1.17;;;0.68;;
29168;SDS011;16219;42.864;23.360;2022-07-29T09:13:12;1.88;;;1.05;;
29168;SDS011;16219;42.864;23.360;2022-07-29T09:15:39;0.70;;;0.63;;
29168;SDS011;16219;42.864;23.360;2022-07-29T09:18:06;0.40;;;0.40;;
29168;SDS011;16219;42.864;23.360;2022-07-29T09:20:35;2.38;;;1.05;;
29168;SDS011;16219;42.864;23.360;2022-07-29T09:23:20;0.57;;;0.57;;
29168;SDS011;16219;42.864;23.360;2022-07-29T09:25:47;2.63;;;0.73;;
29168;SDS011;16219;42.864;23.360;2022-07-29T09:28:15;0.52;;;0.52;;
29168;SDS011;16219;42.864;23.360;2022-07-29T09:30:49;0.63;;;0.63;;
29168;SDS011;16219;42.864;23.360;2022-07-29T09:33:18;0.40;;;0.40;;
29168;SDS011;16219;42.864;23.360;2022-07-29T09:35:57;0.30;;;0.30;;
29168;SDS011;16219;42.864;23.360;2022-07-29T09:38:25;0.63;;;0.63;;
29168;SDS011;16219;42.864;23.360;2022-07-29T09:40:55;0.47;;;0.47;;
29168;SDS011;16219;42.864;23.360;2022-07-29T09:43:23;2.15;;;0.95;;
29168;SDS011;16219;42.864;23.360;2022-07-29T09:45:50;0.82;;;0.60;;
29168;SDS011;16219;42.864;23.360;2022-07-29T09:48:18;0.73;;;0.50;;
29168;SDS011;16219;42.864;23.360;2022-07-29T09:50:48;0.75;;;0.73;;
29168;SDS011;16219;42.864;23.360;2022-07-29T09:53:29;0.50;;;0.50;;
29168;SDS011;16219;42.864;23.360;2022-07-29T09:55:58;0.73;;;0.73;;
29168;SDS011;16219;42.864;23.360;2022-07-29T09:58:25;0.80;;;0.60;;
29168;SDS011;16219;42.864;23.360;2022-07-29T10:00:53;0.60;;;0.60;;
29168;SDS011;16219;42.864;23.360;2022-07-29T10:03:21;0.68;;;0.57;;
29168;SDS011;16219;42.864;23.360;2022-07-29T10:08:35;1.58;;;0.80;;
29168;SDS011;16219;42.864;23.360;2022-07-29T10:11:10;0.70;;;0.70;;
29168;SDS011;16219;42.864;23.360;2022-07-29T10:13:39;1.38;;;0.57;;
29168;SDS011;16219;42.864;23.360;2022-07-29T10:16:08;0.20;;;0.20;;
29168;SDS011;16219;42.864;23.360;2022-07-29T10:18:36;0.50;;;0.50;;
29168;SDS011;16219;42.864;23.360;2022-07-29T10:21:05;0.85;;;0.85;;
29168;SDS011;16219;42.864;23.360;2022-07-29T10:23:34;0.50;;;0.50;;
29168;SDS011;16219;42.864;23.360;2022-07-29T10:26:01;1.83;;;1.08;;
29168;SDS011;16219;42.864;23.360;2022-07-29T10:28:30;1.10;;;1.00;;
29168;SDS011;16219;42.864;23.360;2022-07-29T10:30:59;1.08;;;0.90;;
29168;SDS011;16219;42.864;23.360;2022-07-29T10:33:34;0.52;;;0.52;;
29168;SDS011;16219;42.864;23.360;2022-07-29T10:36:15;0.65;;;0.65;;
29168;SDS011;16219;42.864;23.360;2022-07-29T10:38:53;0.70;;;0.70;;
29168;SDS011;16219;42.864;23.360;2022-07-29T10:44:32;0.70;;;0.70;;
29168;SDS011;16219;42.864;23.360;2022-07-29T10:47:00;0.45;;;0.45;;
29168;SDS011;16219;42.864;23.360;2022-07-29T10:49:28;0.57;;;0.57;;
29168;SDS011;16219;42.864;23.360;2022-07-29T10:51:56;0.47;;;0.47;;
29168;SDS011;16219;42.864;23.360;2022-07-29T10:54:37;0.50;;;0.50;;
29168;SDS011;16219;42.864;23.360;2022-07-29T10:57:22;2.08;;;1.23;;
29168;SDS011;16219;42.864;23.360;2022-07-29T11:02:58;0.60;;;0.60;;
29168;SDS011;16219;42.864;23.360;2022-07-29T11:05:26;1.20;;;1.08;;
29168;SDS011;16219;42.864;23.360;2022-07-29T11:08:17;0.50;;;0.50;;
29168;SDS011;16219;42.864;23.360;2022-07-29T11:10:51;2.20;;;0.60;;
29168;SDS011;16219;42.864;23.360;2022-07-29T11:16:13;0.50;;;0.50;;
29168;SDS011;16219;42.864;23.360;2022-07-29T11:21:45;0.50;;;0.50;;
29168;SDS011;16219;42.864;23.360;2022-07-29T11:24:16;1.88;;;1.40;;
29168;SDS011;16219;42.864;23.360;2022-07-29T11:29:47;1.23;;;0.93;;
29168;SDS011;16219;42.864;23.360;2022-07-29T11:32:18;1.30;;;0.80;;
29168;SDS011;16219;42.864;23.360;2022-07-29T11:34:47;0.70;;;0.70;;
29168;SDS011;16219;42.864;23.360;2022-07-29T11:37:19;0.40;;;0.40;;
29168;SDS011;16219;42.864;23.360;2022-07-29T11:42:51;0.68;;;0.68;;
29168;SDS011;16219;42.864;23.360;2022-07-29T11:45:22;0.77;;;0.77;;
29168;SDS011;16219;42.864;23.360;2022-07-29T11:47:57;2.70;;;0.63;;
29168;SDS011;16219;42.864;23.360;2022-07-29T11:50:30;0.43;;;0.43;;
29168;SDS011;16219;42.864;23.360;2022-07-29T11:53:02;1.05;;;0.95;;
29168;SDS011;16219;42.864;23.360;2022-07-29T11:55:37;1.25;;;0.90;;
29168;SDS011;16219;42.864;23.360;2022-07-29T11:58:06;0.45;;;0.45;;
29168;SDS011;16219;42.864;23.360;2022-07-29T12:00:34;0.93;;;0.90;;
29168;SDS011;16219;42.864;23.360;2022-07-29T12:03:04;0.70;;;0.70;;
29168;SDS011;16219;42.864;23.360;2022-07-29T12:05:34;1.77;;;1.50;;
29168;SDS011;16219;42.864;23.360;2022-07-29T12:08:10;0.82;;;0.70;;
29168;SDS011;16219;42.864;23.360;2022-07-29T12:10:40;1.08;;;0.93;;
29168;SDS011;16219;42.864;23.360;2022-07-29T12:13:09;0.65;;;0.65;;
29168;SDS011;16219;42.864;23.360;2022-07-29T12:15:37;0.70;;;0.70;;
29168;SDS011;16219;42.864;23.360;2022-07-29T12:18:12;0.77;;;0.77;;
29168;SDS011;16219;42.864;23.360;2022-07-29T12:20:40;0.65;;;0.57;;
29168;SDS011;16219;42.864;23.360;2022-07-29T12:23:09;0.98;;;0.60;;
29168;SDS011;16219;42.864;23.360;2022-07-29T12:25:38;0.50;;;0.50;;
29168;SDS011;16219;42.864;23.360;2022-07-29T12:28:08;1.27;;;1.05;;
29168;SDS011;16219;42.864;23.360;2022-07-29T12:30:40;1.67;;;0.90;;
29168;SDS011;16219;42.864;23.360;2022-07-29T12:35:55;0.60;;;0.60;;
29168;SDS011;16219;42.864;23.360;2022-07-29T12:38:24;0.60;;;0.60;;
29168;SDS011;16219;42.864;23.360;2022-07-29T12:40:52;0.80;;;0.80;;
29168;SDS011;16219;42.864;23.360;2022-07-29T12:43:22;0.55;;;0.55;;
29168;SDS011;16219;42.864;23.360;2022-07-29T12:45:51;0.73;;;0.73;;
29168;SDS011;16219;42.864;23.360;2022-07-29T12:48:32;0.73;;;0.73;;
29168;SDS011;16219;42.864;23.360;2022-07-29T12:51:00;0.73;;;0.73;;
29168;SDS011;16219;42.864;23.360;2022-07-29T12:53:29;0.90;;;0.90;;
29168;SDS011;16219;42.864;23.360;2022-07-29T12:55:57;0.80;;;0.80;;
29168;SDS011;16219;42.864;23.360;2022-07-29T12:58:31;1.08;;;1.02;;
29168;SDS011;16219;42.864;23.360;2022-07-29T13:03:29;0.82;;;0.70;;
29168;SDS011;16219;42.864;23.360;2022-07-29T13:06:28;1.00;;;0.60;;
29168;SDS011;16219;42.864;23.360;2022-07-29T13:09:06;0.75;;;0.75;;
29168;SDS011;16219;42.864;23.360;2022-07-29T13:11:35;1.48;;;1.00;;
29168;SDS011;16219;42.864;23.360;2022-07-29T13:14:06;0.85;;;0.85;;
29168;SDS011;16219;42.864;23.360;2022-07-29T13:54:32;0.70;;;0.70;;
29168;SDS011;16219;42.864;23.360;2022-07-29T13:57:02;1.08;;;1.00;;
29168;SDS011;16219;42.864;23.360;2022-07-29T13:59:29;0.70;;;0.70;;
29168;SDS011;16219;42.864;23.360;2022-07-29T14:01:57;0.50;;;0.50;;
29168;SDS011;16219;42.864;23.360;2022-07-29T14:04:24;0.57;;;0.57;;
29168;SDS011;16219;42.864;23.360;2022-07-29T14:06:51;1.65;;;0.90;;
29168;SDS011;16219;42.864;23.360;2022-07-29T14:09:18;2.72;;;0.85;;
29168;SDS011;16219;42.864;23.360;2022-07-29T14:11:47;1.00;;;0.90;;
29168;SDS011;16219;42.864;23.360;2022-07-29T14:14:16;0.93;;;0.77;;
29168;SDS011;16219;42.864;23.360;2022-07-29T14:16:44;1.55;;;1.45;;
29168;SDS011;16219;42.864;23.360;2022-07-29T14:19:11;0.75;;;0.73;;
29168;SDS011;16219;42.864;23.360;2022-07-29T14:21:38;0.60;;;0.60;;
29168;SDS011;16219;42.864;23.360;2022-07-29T14:24:06;0.30;;;0.30;;
29168;SDS011;16219;42.864;23.360;2022-07-29T14:26:33;0.63;;;0.63;;
29168;SDS011;16219;42.864;23.360;2022-07-29T14:29:02;0.68;;;0.68;;
29168;SDS011;16219;42.864;23.360;2022-07-29T14:31:29;1.10;;;1.00;;
29168;SDS011;16219;42.864;23.360;2022-07-29T14:33:57;1.92;;;0.70;;
29168;SDS011;16219;42.864;23.360;2022-07-29T14:36:24;0.60;;;0.60;;
29168;SDS011;16219;42.864;23.360;2022-07-29T14:38:52;1.30;;;1.10;;
29168;SDS011;16219;42.864;23.360;2022-07-29T14:41:20;0.75;;;0.75;;
29168;SDS011;16219;42.864;23.360;2022-07-29T14:43:47;0.60;;;0.60;;
29168;SDS011;16219;42.864;23.360;2022-07-29T14:46:16;0.77;;;0.73;;
29168;SDS011;16219;42.864;23.360;2022-07-29T14:48:43;0.57;;;0.57;;
29168;SDS011;16219;42.864;23.360;2022-07-29T14:51:11;0.52;;;0.52;;
29168;SDS011;16219;42.864;23.360;2022-07-29T14:53:38;0.50;;;0.43;;
29168;SDS011;16219;42.864;23.360;2022-07-29T14:56:05;2.15;;;1.38;;
29168;SDS011;16219;42.864;23.360;2022-07-29T14:58:32;1.35;;;0.90;;
29168;SDS011;16219;42.864;23.360;2022-07-29T15:01:00;0.60;;;0.60;;
29168;SDS011;16219;42.864;23.360;2022-07-29T15:03:28;1.38;;;0.50;;
29168;SDS011;16219;42.864;23.360;2022-07-29T15:05:55;0.50;;;0.50;;
29168;SDS011;16219;42.864;23.360;2022-07-29T15:08:23;2.45;;;1.60;;
29168;SDS011;16219;42.864;23.360;2022-07-29T15:10:50;2.03;;;1.10;;
29168;SDS011;16219;42.864;23.360;2022-07-29T15:13:18;1.50;;;0.75;;
29168;SDS011;16219;42.864;23.360;2022-07-29T15:15:46;0.40;;;0.40;;
29168;SDS011;16219;42.864;23.360;2022-07-29T15:18:13;0.90;;;0.90;;
29168;SDS011;16219;42.864;23.360;2022-07-29T15:20:41;0.73;;;0.73;;
29168;SDS011;16219;42.864;23.360;2022-07-29T15:23:10;0.68;;;0.68;;
29168;SDS011;16219;42.864;23.360;2022-07-29T15:25:37;0.93;;;0.90;;
29168;SDS011;16219;42.864;23.360;2022-07-29T15:28:05;0.68;;;0.68;;
29168;SDS011;16219;42.864;23.360;2022-07-29T15:30:33;1.70;;;0.98;;
29168;SDS011;16219;42.864;23.360;2022-07-29T15:33:06;1.75;;;1.08;;
29168;SDS011;16219;42.864;23.360;2022-07-29T15:35:34;0.70;;;0.68;;
29168;SDS011;16219;42.864;23.360;2022-07-29T15:38:03;1.23;;;1.13;;
29168;SDS011;16219;42.864;23.360;2022-07-29T15:40:30;3.60;;;1.15;;
29168;SDS011;16219;42.864;23.360;2022-07-29T15:42:58;0.75;;;0.75;;
29168;SDS011;16219;42.864;23.360;2022-07-29T15:45:34;1.35;;;1.00;;
29168;SDS011;16219;42.864;23.360;2022-07-29T15:48:04;3.53;;;1.63;;
29168;SDS011;16219;42.864;23.360;2022-07-29T15:50:33;0.70;;;0.70;;
29168;SDS011;16219;42.864;23.360;2022-07-29T15:53:00;1.23;;;1.13;;
29168;SDS011;16219;42.864;23.360;2022-07-29T15:55:29;1.52;;;1.38;;
29168;SDS011;16219;42.864;23.360;2022-07-29T15:57:56;10.95;;;2.45;;
29168;SDS011;16219;42.864;23.360;2022-07-29T16:00:23;0.63;;;0.63;;
29168;SDS011;16219;42.864;23.360;2022-07-29T16:02:50;1.25;;;1.15;;
29168;SDS011;16219;42.864;23.360;2022-07-29T16:05:18;1.50;;;1.40;;
29168;SDS011;16219;42.864;23.360;2022-07-29T16:07:45;0.80;;;0.77;;
29168;SDS011;16219;42.864;23.360;2022-07-29T16:10:13;1.13;;;1.08;;
29168;SDS011;16219;42.864;23.360;2022-07-29T16:12:41;2.10;;;1.75;;
29168;SDS011;16219;42.864;23.360;2022-07-29T16:15:09;3.15;;;1.83;;
29168;SDS011;16219;42.864;23.360;2022-07-29T16:17:36;1.05;;;1.00;;
29168;SDS011;16219;42.864;23.360;2022-07-29T16:20:05;0.70;;;0.70;;
29168;SDS011;16219;42.864;23.360;2022-07-29T16:22:33;1.48;;;1.25;;
29168;SDS011;16219;42.864;23.360;2022-07-29T16:25:00;1.13;;;0.90;;
29168;SDS011;16219;42.864;23.360;2022-07-29T16:27:28;0.77;;;0.77;;
29168;SDS011;16219;42.864;23.360;2022-07-29T16:29:57;0.60;;;0.60;;
29168;SDS011;16219;42.864;23.360;2022-07-29T16:32:24;1.10;;;1.02;;
29168;SDS011;16219;42.864;23.360;2022-07-29T16:34:52;1.65;;;1.38;;
29168;SDS011;16219;42.864;23.360;2022-07-29T16:37:19;1.52;;;1.05;;
29168;SDS011;16219;42.864;23.360;2022-07-29T16:39:46;4.70;;;1.55;;
29168;SDS011;16219;42.864;23.360;2022-07-29T16:42:13;1.30;;;1.20;;
29168;SDS011;16219;42.864;23.360;2022-07-29T16:44:40;1.13;;;1.08;;
29168;SDS011;16219;42.864;23.360;2022-07-29T16:47:09;1.25;;;1.08;;
29168;SDS011;16219;42.864;23.360;2022-07-29T16:49:37;0.90;;;0.88;;
29168;SDS011;16219;42.864;23.360;2022-07-29T16:52:04;1.75;;;1.50;;
29168;SDS011;16219;42.864;23.360;2022-07-29T16:54:31;0.57;;;0.57;;
29168;SDS011;16219;42.864;23.360;2022-07-29T16:56:59;3.45;;;1.15;;
29168;SDS011;16219;42.864;23.360;2022-07-29T16:59:26;0.90;;;0.90;;
29168;SDS011;16219;42.864;23.360;2022-07-29T17:01:53;1.17;;;1.08;;
29168;SDS011;16219;42.864;23.360;2022-07-29T17:04:23;4.68;;;1.27;;
29168;SDS011;16219;42.864;23.360;2022-07-29T17:06:50;4.45;;;1.95;;
29168;SDS011;16219;42.864;23.360;2022-07-29T17:09:18;1.23;;;1.17;;
29168;SDS011;16219;42.864;23.360;2022-07-29T17:11:45;1.65;;;1.27;;